sensor_id;sensor_type;location;lat;lon;timestamp;pressure;altitude;pressure_sealevel;temperature;humidity
61571;BME280;47463;49.884;10.010;2023-02-21T00:00:01;102409.99999999999;;;7.7;75
61571;BME280;47463;49.884;10.010;2023-02-21T00:05:01;102400;;;7.7;76
61571;BME280;47463;49.884;10.010;2023-02-21T00:10:01;102409.99999999999;;;7.7;76
61571;BME280;47463;49.884;10.010;2023-02-21T00:15:01;102400;;;7.6;76
61571;BME280;47463;49.884;10.010;2023-02-21T00:20:01;102400;;;7.2;77
61571;BME280;47463;49.884;10.010;2023-02-21T00:25:01;102400;;;7.2;77
61571;BME280;47463;49.884;10.010;2023-02-21T00:30:01;102400;;;6.9;78
61571;BME280;47463;49.884;10.010;2023-02-21T00:35:01;102400;;;6.7;79
61571;BME280;47463;49.884;10.010;2023-02-21T00:40:01;102400;;;5.9;80
61571;BME280;47463;49.884;10.010;2023-02-21T00:45:01;102400;;;5.6;82
61571;BME280;47463;49.884;10.010;2023-02-21T00:50:01;102400;;;5;84
61571;BME280;47463;49.884;10.010;2023-02-21T00:55:01;102400;;;4.9;85
61571;BME280;47463;49.884;10.010;2023-02-21T01:00:01;102400;;;4.8;85
61571;BME280;47463;49.884;10.010;2023-02-21T01:05:01;102400;;;4.5;87
61571;BME280;47463;49.884;10.010;2023-02-21T01:10:01;102400;;;4.4;87
61571;BME280;47463;49.884;10.010;2023-02-21T01:15:01;102390;;;4.4;88
61571;BME280;47463;49.884;10.010;2023-02-21T01:20:01;102390;;;4.2;88
61571;BME280;47463;49.884;10.010;2023-02-21T01:25:01;102390;;;4.2;89
61571;BME280;47463;49.884;10.010;2023-02-21T01:30:01;102400;;;4.3;89
61571;BME280;47463;49.884;10.010;2023-02-21T01:35:01;102380;;;5;87
61571;BME280;47463;49.884;10.010;2023-02-21T01:40:01;102360;;;5.4;86
61571;BME280;47463;49.884;10.010;2023-02-21T01:45:37;102370;;;5.6;85
61571;BME280;47463;49.884;10.010;2023-02-21T01:50:01;102360;;;5.7;85
61571;BME280;47463;49.884;10.010;2023-02-21T01:55:01;102360;;;6;84
61571;BME280;47463;49.884;10.010;2023-02-21T02:00:02;102360;;;6;84
61571;BME280;47463;49.884;10.010;2023-02-21T02:05:01;102350;;;6.1;84
61571;BME280;47463;49.884;10.010;2023-02-21T02:10:01;102360;;;6.1;84
61571;BME280;47463;49.884;10.010;2023-02-21T02:15:05;102350;;;6.1;84
61571;BME280;47463;49.884;10.010;2023-02-21T02:20:08;102350;;;6.2;84
61571;BME280;47463;49.884;10.010;2023-02-21T02:25:05;102350;;;6.3;84
61571;BME280;47463;49.884;10.010;2023-02-21T02:30:08;102360;;;6.3;84
61571;BME280;47463;49.884;10.010;2023-02-21T02:35:01;102350;;;6.3;84
61571;BME280;47463;49.884;10.010;2023-02-21T02:40:02;102350;;;6.3;84
61571;BME280;47463;49.884;10.010;2023-02-21T02:45:02;102360;;;6.2;85
61571;BME280;47463;49.884;10.010;2023-02-21T02:50:01;102360;;;6.2;85
61571;BME280;47463;49.884;10.010;2023-02-21T02:55:02;102340;;;6.2;85
61571;BME280;47463;49.884;10.010;2023-02-21T03:00:01;102350;;;6.2;85
61571;BME280;47463;49.884;10.010;2023-02-21T03:05:04;102350;;;6.3;85
61571;BME280;47463;49.884;10.010;2023-02-21T03:10:02;102350;;;6.3;85
61571;BME280;47463;49.884;10.010;2023-02-21T03:15:02;102350;;;6.4;84
61571;BME280;47463;49.884;10.010;2023-02-21T03:20:01;102340;;;6.4;84
61571;BME280;47463;49.884;10.010;2023-02-21T03:25:01;102340;;;6.4;84
61571;BME280;47463;49.884;10.010;2023-02-21T03:30:02;102340;;;6.4;84
61571;BME280;47463;49.884;10.010;2023-02-21T03:35:01;102350;;;6.5;84
61571;BME280;47463;49.884;10.010;2023-02-21T03:40:01;102350;;;6.7;83
61571;BME280;47463;49.884;10.010;2023-02-21T03:45:01;102350;;;6.9;83
61571;BME280;47463;49.884;10.010;2023-02-21T03:50:01;102350;;;7;82
61571;BME280;47463;49.884;10.010;2023-02-21T03:55:01;102350;;;7;82
61571;BME280;47463;49.884;10.010;2023-02-21T04:00:01;102340;;;6.9;82
61571;BME280;47463;49.884;10.010;2023-02-21T04:05:01;102340;;;6.9;82
61571;BME280;47463;49.884;10.010;2023-02-21T04:10:01;102340;;;6.9;82
61571;BME280;47463;49.884;10.010;2023-02-21T04:15:01;102350;;;6.8;82
61571;BME280;47463;49.884;10.010;2023-02-21T04:20:01;102340;;;6.8;82
61571;BME280;47463;49.884;10.010;2023-02-21T04:25:01;102340;;;6.8;82
61571;BME280;47463;49.884;10.010;2023-02-21T04:30:01;102340;;;6.7;83
61571;BME280;47463;49.884;10.010;2023-02-21T04:35:01;102340;;;6.6;83
61571;BME280;47463;49.884;10.010;2023-02-21T04:40:01;102330;;;6.5;83
61571;BME280;47463;49.884;10.010;2023-02-21T04:45:01;102340;;;6.5;83
61571;BME280;47463;49.884;10.010;2023-02-21T04:50:01;102320;;;6.4;83
61571;BME280;47463;49.884;10.010;2023-02-21T04:55:01;102330;;;6.4;84
61571;BME280;47463;49.884;10.010;2023-02-21T05:00:01;102330;;;6.4;84
61571;BME280;47463;49.884;10.010;2023-02-21T05:05:01;102310;;;6.4;84
61571;BME280;47463;49.884;10.010;2023-02-21T05:10:01;102310;;;6.5;84
61571;BME280;47463;49.884;10.010;2023-02-21T05:15:01;102310;;;6.3;84
61571;BME280;47463;49.884;10.010;2023-02-21T05:20:01;102310;;;6.4;84
61571;BME280;47463;49.884;10.010;2023-02-21T05:25:01;102310;;;6.3;85
61571;BME280;47463;49.884;10.010;2023-02-21T05:30:01;102290;;;6.3;85
61571;BME280;47463;49.884;10.010;2023-02-21T05:35:01;102300;;;6.3;85
61571;BME280;47463;49.884;10.010;2023-02-21T05:40:01;102300;;;6.3;85
61571;BME280;47463;49.884;10.010;2023-02-21T05:45:01;102290;;;6.1;85
61571;BME280;47463;49.884;10.010;2023-02-21T05:50:01;102300;;;5.7;86
61571;BME280;47463;49.884;10.010;2023-02-21T05:55:01;102280;;;5.3;87
61571;BME280;47463;49.884;10.010;2023-02-21T06:00:01;102280;;;5.2;88
61571;BME280;47463;49.884;10.010;2023-02-21T06:05:01;102290;;;5.3;88
61571;BME280;47463;49.884;10.010;2023-02-21T06:10:01;102280;;;5.5;87
61571;BME280;47463;49.884;10.010;2023-02-21T06:15:01;102280;;;5.5;87
61571;BME280;47463;49.884;10.010;2023-02-21T06:20:01;102290;;;5.4;87
61571;BME280;47463;49.884;10.010;2023-02-21T06:25:01;102280;;;5.3;87
61571;BME280;47463;49.884;10.010;2023-02-21T06:30:01;102280;;;5.3;87
61571;BME280;47463;49.884;10.010;2023-02-21T06:35:01;102280;;;4.9;88
61571;BME280;47463;49.884;10.010;2023-02-21T06:40:01;102270;;;4.7;89
61571;BME280;47463;49.884;10.010;2023-02-21T06:45:01;102280;;;4.8;90
61571;BME280;47463;49.884;10.010;2023-02-21T06:50:01;102290;;;5.1;89
61571;BME280;47463;49.884;10.010;2023-02-21T06:55:01;102300;;;5.2;89
61571;BME280;47463;49.884;10.010;2023-02-21T07:00:01;102310;;;5.6;88
61571;BME280;47463;49.884;10.010;2023-02-21T07:05:01;102300;;;5.8;87
61571;BME280;47463;49.884;10.010;2023-02-21T07:10:01;102320;;;6.2;86
61571;BME280;47463;49.884;10.010;2023-02-21T07:15:01;102320;;;6.5;85
61571;BME280;47463;49.884;10.010;2023-02-21T07:20:01;102330;;;6.7;84
61571;BME280;47463;49.884;10.010;2023-02-21T07:25:01;102330;;;6.6;85
61571;BME280;47463;49.884;10.010;2023-02-21T07:30:01;102330;;;6.9;84
61571;BME280;47463;49.884;10.010;2023-02-21T07:35:01;102330;;;7.2;83
61571;BME280;47463;49.884;10.010;2023-02-21T07:40:01;102340;;;7.3;82
61571;BME280;47463;49.884;10.010;2023-02-21T07:45:02;102330;;;7.5;81
61571;BME280;47463;49.884;10.010;2023-02-21T07:50:01;102330;;;7.6;80
61571;BME280;47463;49.884;10.010;2023-02-21T07:55:01;102330;;;7.5;80
61571;BME280;47463;49.884;10.010;2023-02-21T08:00:01;102340;;;7.4;80
61571;BME280;47463;49.884;10.010;2023-02-21T08:05:01;102340;;;7.5;81
61571;BME280;47463;49.884;10.010;2023-02-21T08:10:01;102350;;;7.5;81
61571;BME280;47463;49.884;10.010;2023-02-21T08:15:01;102360;;;7.5;81
61571;BME280;47463;49.884;10.010;2023-02-21T08:20:01;102360;;;7.6;80
61571;BME280;47463;49.884;10.010;2023-02-21T08:25:01;102350;;;7.7;80
61571;BME280;47463;49.884;10.010;2023-02-21T08:30:01;102360;;;7.7;80
61571;BME280;47463;49.884;10.010;2023-02-21T08:35:01;102360;;;7.7;81
61571;BME280;47463;49.884;10.010;2023-02-21T08:40:01;102370;;;7.8;81
61571;BME280;47463;49.884;10.010;2023-02-21T08:45:01;102370;;;7.8;82
61571;BME280;47463;49.884;10.010;2023-02-21T08:50:01;102380;;;7.8;82
61571;BME280;47463;49.884;10.010;2023-02-21T08:55:01;102380;;;7.8;82
61571;BME280;47463;49.884;10.010;2023-02-21T09:00:01;102360;;;7.8;82
61571;BME280;47463;49.884;10.010;2023-02-21T09:05:01;102370;;;7.9;82
61571;BME280;47463;49.884;10.010;2023-02-21T09:10:01;102380;;;7.9;82
61571;BME280;47463;49.884;10.010;2023-02-21T09:15:01;102380;;;8.2;82
61571;BME280;47463;49.884;10.010;2023-02-21T09:20:01;102370;;;8.2;82
61571;BME280;47463;49.884;10.010;2023-02-21T09:25:01;102360;;;8.3;81
61571;BME280;47463;49.884;10.010;2023-02-21T09:30:02;102360;;;8.5;81
61571;BME280;47463;49.884;10.010;2023-02-21T09:35:01;102370;;;8.7;81
61571;BME280;47463;49.884;10.010;2023-02-21T09:40:01;102360;;;8.6;79
61571;BME280;47463;49.884;10.010;2023-02-21T09:45:01;102360;;;8.9;79
61571;BME280;47463;49.884;10.010;2023-02-21T09:50:02;102340;;;8.8;78
61571;BME280;47463;49.884;10.010;2023-02-21T09:55:02;102340;;;9;79
61571;BME280;47463;49.884;10.010;2023-02-21T10:00:01;102340;;;9.1;79
61571;BME280;47463;49.884;10.010;2023-02-21T10:05:02;102340;;;9;78
61571;BME280;47463;49.884;10.010;2023-02-21T10:10:03;102340;;;9.1;79
61571;BME280;47463;49.884;10.010;2023-02-21T10:15:07;102340;;;9.3;78
61571;BME280;47463;49.884;10.010;2023-02-21T10:20:01;102340;;;9.4;78
61571;BME280;47463;49.884;10.010;2023-02-21T10:25:01;102330;;;9.6;77
61571;BME280;47463;49.884;10.010;2023-02-21T10:30:02;102330;;;9.6;78
61571;BME280;47463;49.884;10.010;2023-02-21T10:35:01;102330;;;10.1;77
61571;BME280;47463;49.884;10.010;2023-02-21T10:40:02;102340;;;10.1;77
61571;BME280;47463;49.884;10.010;2023-02-21T10:45:01;102340;;;10.7;76
61571;BME280;47463;49.884;10.010;2023-02-21T10:50:02;102340;;;10.4;76
61571;BME280;47463;49.884;10.010;2023-02-21T10:55:01;102340;;;10.5;76
61571;BME280;47463;49.884;10.010;2023-02-21T11:00:01;102330;;;10.9;76
61571;BME280;47463;49.884;10.010;2023-02-21T11:05:10;102340;;;11.1;74
61571;BME280;47463;49.884;10.010;2023-02-21T11:10:01;102320;;;11.3;74
61571;BME280;47463;49.884;10.010;2023-02-21T11:15:02;102320;;;11.3;74
61571;BME280;47463;49.884;10.010;2023-02-21T11:20:03;102330;;;11.6;75
61571;BME280;47463;49.884;10.010;2023-02-21T11:25:02;102310;;;11.9;74
61571;BME280;47463;49.884;10.010;2023-02-21T11:30:01;102310;;;11.6;74
61571;BME280;47463;49.884;10.010;2023-02-21T11:35:02;102300;;;11.6;75
61571;BME280;47463;49.884;10.010;2023-02-21T11:40:01;102290;;;11.8;74
61571;BME280;47463;49.884;10.010;2023-02-21T11:45:10;102280;;;11.9;74
61571;BME280;47463;49.884;10.010;2023-02-21T11:50:03;102280;;;11.9;74
61571;BME280;47463;49.884;10.010;2023-02-21T11:55:01;102280;;;11.5;76
61571;BME280;47463;49.884;10.010;2023-02-21T12:00:04;102280;;;11.6;76
61571;BME280;47463;49.884;10.010;2023-02-21T12:05:04;102270;;;11.7;76
61571;BME280;47463;49.884;10.010;2023-02-21T12:10:02;102270;;;11.6;76
61571;BME280;47463;49.884;10.010;2023-02-21T12:15:04;102260;;;11.6;77
61571;BME280;47463;49.884;10.010;2023-02-21T12:20:04;102260;;;11.5;76
61571;BME280;47463;49.884;10.010;2023-02-21T12:25:04;102260;;;11.3;77
61571;BME280;47463;49.884;10.010;2023-02-21T12:30:05;102260;;;11.5;76
61571;BME280;47463;49.884;10.010;2023-02-21T12:35:03;102250;;;11.5;76
61571;BME280;47463;49.884;10.010;2023-02-21T12:40:03;102240;;;11.6;76
61571;BME280;47463;49.884;10.010;2023-02-21T12:45:05;102240;;;11.5;76
61571;BME280;47463;49.884;10.010;2023-02-21T12:50:02;102230;;;11.6;77
61571;BME280;47463;49.884;10.010;2023-02-21T12:55:02;102220;;;11.6;77
61571;BME280;47463;49.884;10.010;2023-02-21T13:00:02;102210;;;11.5;77
61571;BME280;47463;49.884;10.010;2023-02-21T13:05:02;102210;;;11.7;77
61571;BME280;47463;49.884;10.010;2023-02-21T13:10:02;102200;;;11.9;76
61571;BME280;47463;49.884;10.010;2023-02-21T13:15:02;102190;;;11.8;75
61571;BME280;47463;49.884;10.010;2023-02-21T13:20:02;102170;;;12;75
61571;BME280;47463;49.884;10.010;2023-02-21T13:25:03;102160;;;12.1;75
61571;BME280;47463;49.884;10.010;2023-02-21T13:30:02;102150;;;12.1;74
61571;BME280;47463;49.884;10.010;2023-02-21T13:35:01;102140;;;12.6;74
61571;BME280;47463;49.884;10.010;2023-02-21T13:40:03;102130;;;13;72
61571;BME280;47463;49.884;10.010;2023-02-21T13:45:08;102110;;;13;71
61571;BME280;47463;49.884;10.010;2023-02-21T13:50:01;102110;;;12.9;71
61571;BME280;47463;49.884;10.010;2023-02-21T13:55:15;102100;;;13.3;71
61571;BME280;47463;49.884;10.010;2023-02-21T14:00:07;102090;;;13.5;70
61571;BME280;47463;49.884;10.010;2023-02-21T14:05:02;102070;;;13.6;70
61571;BME280;47463;49.884;10.010;2023-02-21T14:10:01;102070;;;13.6;69
61571;BME280;47463;49.884;10.010;2023-02-21T14:15:03;102070;;;14;68
61571;BME280;47463;49.884;10.010;2023-02-21T14:20:01;102070;;;14.2;67
61571;BME280;47463;49.884;10.010;2023-02-21T14:25:03;102060;;;14.5;67
61571;BME280;47463;49.884;10.010;2023-02-21T14:30:34;102060;;;14.4;67
61571;BME280;47463;49.884;10.010;2023-02-21T14:35:01;102060;;;14;68
61571;BME280;47463;49.884;10.010;2023-02-21T14:40:03;102050;;;14.1;68
61571;BME280;47463;49.884;10.010;2023-02-21T14:45:08;102050;;;13.6;69
61571;BME280;47463;49.884;10.010;2023-02-21T14:50:04;102030;;;13.8;69
61571;BME280;47463;49.884;10.010;2023-02-21T14:55:07;102030;;;13.7;69
61571;BME280;47463;49.884;10.010;2023-02-21T15:00:03;102020;;;14;69
61571;BME280;47463;49.884;10.010;2023-02-21T15:05:03;102020;;;13.9;69
61571;BME280;47463;49.884;10.010;2023-02-21T15:10:05;102010;;;13.6;70
61571;BME280;47463;49.884;10.010;2023-02-21T15:15:01;102010;;;13.9;69
61571;BME280;47463;49.884;10.010;2023-02-21T15:20:02;101990;;;14.3;68
61571;BME280;47463;49.884;10.010;2023-02-21T15:25:10;101990;;;14;69
61571;BME280;47463;49.884;10.010;2023-02-21T15:30:03;101990;;;13.7;70
61571;BME280;47463;49.884;10.010;2023-02-21T15:35:02;101980;;;13.8;70
61571;BME280;47463;49.884;10.010;2023-02-21T15:40:03;101980;;;14.3;69
61571;BME280;47463;49.884;10.010;2023-02-21T15:45:02;101980;;;14.4;68
61571;BME280;47463;49.884;10.010;2023-02-21T15:50:02;101990;;;14.1;68
61571;BME280;47463;49.884;10.010;2023-02-21T15:55:26;101990;;;13.8;69
61571;BME280;47463;49.884;10.010;2023-02-21T16:00:15;101990;;;13.5;70
61571;BME280;47463;49.884;10.010;2023-02-21T16:05:01;101980;;;13.3;71
61571;BME280;47463;49.884;10.010;2023-02-21T16:10:02;101970;;;13.1;71
61571;BME280;47463;49.884;10.010;2023-02-21T16:15:02;101970;;;13;71
61571;BME280;47463;49.884;10.010;2023-02-21T16:20:01;101970;;;12.9;72
61571;BME280;47463;49.884;10.010;2023-02-21T16:25:05;101970;;;12.2;75
61571;BME280;47463;49.884;10.010;2023-02-21T16:30:01;101970;;;11.9;77
61571;BME280;47463;49.884;10.010;2023-02-21T16:35:01;101960;;;11.7;77
61571;BME280;47463;49.884;10.010;2023-02-21T16:40:01;101970;;;11.5;78
61571;BME280;47463;49.884;10.010;2023-02-21T16:45:01;101970;;;11.3;79
61571;BME280;47463;49.884;10.010;2023-02-21T16:50:01;101970;;;10.8;80
61571;BME280;47463;49.884;10.010;2023-02-21T16:55:01;101970;;;10.5;81
61571;BME280;47463;49.884;10.010;2023-02-21T17:00:01;101970;;;10.3;83
61571;BME280;47463;49.884;10.010;2023-02-21T17:05:01;101970;;;10.2;83
61571;BME280;47463;49.884;10.010;2023-02-21T17:10:01;101970;;;10.1;83
61571;BME280;47463;49.884;10.010;2023-02-21T17:15:01;101980;;;10;83
61571;BME280;47463;49.884;10.010;2023-02-21T17:20:01;101970;;;9.9;83
61571;BME280;47463;49.884;10.010;2023-02-21T17:25:01;101980;;;9.4;85
61571;BME280;47463;49.884;10.010;2023-02-21T17:30:01;101980;;;9.2;85
61571;BME280;47463;49.884;10.010;2023-02-21T17:35:01;101980;;;9.1;86
61571;BME280;47463;49.884;10.010;2023-02-21T17:40:01;101990;;;9.1;86
61571;BME280;47463;49.884;10.010;2023-02-21T17:45:01;101990;;;8.8;86
61571;BME280;47463;49.884;10.010;2023-02-21T17:50:01;101990;;;8.7;87
61571;BME280;47463;49.884;10.010;2023-02-21T17:55:01;102000;;;8.5;87
61571;BME280;47463;49.884;10.010;2023-02-21T18:00:01;102000;;;8.5;88
61571;BME280;47463;49.884;10.010;2023-02-21T18:05:01;102010;;;8.4;88
61571;BME280;47463;49.884;10.010;2023-02-21T18:10:01;102010;;;8.4;87
61571;BME280;47463;49.884;10.010;2023-02-21T18:15:01;102010;;;8.2;88
61571;BME280;47463;49.884;10.010;2023-02-21T18:20:01;102010;;;8.1;88
61571;BME280;47463;49.884;10.010;2023-02-21T18:25:01;102010;;;7.9;89
61571;BME280;47463;49.884;10.010;2023-02-21T18:30:01;102010;;;8.1;90
61571;BME280;47463;49.884;10.010;2023-02-21T18:35:01;102010;;;8.1;88
61571;BME280;47463;49.884;10.010;2023-02-21T18:40:01;102020;;;8;89
61571;BME280;47463;49.884;10.010;2023-02-21T18:45:01;102010;;;7.8;89
61571;BME280;47463;49.884;10.010;2023-02-21T18:50:01;102010;;;7.6;90
61571;BME280;47463;49.884;10.010;2023-02-21T18:55:01;102010;;;7.5;90
61571;BME280;47463;49.884;10.010;2023-02-21T19:00:02;102010;;;7.4;91
61571;BME280;47463;49.884;10.010;2023-02-21T19:05:01;102010;;;7.4;91
61571;BME280;47463;49.884;10.010;2023-02-21T19:10:01;102010;;;7.3;91
61571;BME280;47463;49.884;10.010;2023-02-21T19:15:01;102020;;;7.2;92
61571;BME280;47463;49.884;10.010;2023-02-21T19:20:01;102010;;;7.3;92
61571;BME280;47463;49.884;10.010;2023-02-21T19:25:01;102020;;;7.2;91
61571;BME280;47463;49.884;10.010;2023-02-21T19:30:01;102020;;;7.2;92
61571;BME280;47463;49.884;10.010;2023-02-21T19:35:01;102020;;;7.2;92
61571;BME280;47463;49.884;10.010;2023-02-21T19:40:01;102020;;;7.3;92
61571;BME280;47463;49.884;10.010;2023-02-21T19:45:01;102020;;;7.3;92
61571;BME280;47463;49.884;10.010;2023-02-21T19:50:01;102020;;;7.4;92
61571;BME280;47463;49.884;10.010;2023-02-21T19:55:01;102030;;;7.3;92
61571;BME280;47463;49.884;10.010;2023-02-21T20:00:01;102030;;;7.3;92
61571;BME280;47463;49.884;10.010;2023-02-21T20:05:01;102020;;;7.2;92
61571;BME280;47463;49.884;10.010;2023-02-21T20:10:01;102030;;;7.1;92
61571;BME280;47463;49.884;10.010;2023-02-21T20:15:01;102030;;;7;93
61571;BME280;47463;49.884;10.010;2023-02-21T20:20:01;102030;;;7;93
61571;BME280;47463;49.884;10.010;2023-02-21T20:25:01;102030;;;6.8;93
61571;BME280;47463;49.884;10.010;2023-02-21T20:30:01;102030;;;6.8;93
61571;BME280;47463;49.884;10.010;2023-02-21T20:35:01;102020;;;6.8;93
61571;BME280;47463;49.884;10.010;2023-02-21T20:40:01;102030;;;6.8;94
61571;BME280;47463;49.884;10.010;2023-02-21T20:45:01;102030;;;6.7;93
61571;BME280;47463;49.884;10.010;2023-02-21T20:50:01;102030;;;6.7;94
61571;BME280;47463;49.884;10.010;2023-02-21T20:55:01;102020;;;6.8;93
61571;BME280;47463;49.884;10.010;2023-02-21T21:00:01;102020;;;6.7;93
61571;BME280;47463;49.884;10.010;2023-02-21T21:05:01;102020;;;6.3;94
61571;BME280;47463;49.884;10.010;2023-02-21T21:10:01;102020;;;6.4;95
61571;BME280;47463;49.884;10.010;2023-02-21T21:15:01;102010;;;6.4;95
61571;BME280;47463;49.884;10.010;2023-02-21T21:20:01;102020;;;6.3;95
61571;BME280;47463;49.884;10.010;2023-02-21T21:25:01;102020;;;6.2;95
61571;BME280;47463;49.884;10.010;2023-02-21T21:30:01;102020;;;6.1;96
61571;BME280;47463;49.884;10.010;2023-02-21T21:35:01;102020;;;5.8;96
61571;BME280;47463;49.884;10.010;2023-02-21T21:40:01;102020;;;5.7;97
61571;BME280;47463;49.884;10.010;2023-02-21T21:45:01;102010;;;5.6;97
61571;BME280;47463;49.884;10.010;2023-02-21T21:50:01;102020;;;5.5;97
61571;BME280;47463;49.884;10.010;2023-02-21T21:55:01;102020;;;5.4;97
61571;BME280;47463;49.884;10.010;2023-02-21T22:00:01;102020;;;5.3;98
61571;BME280;47463;49.884;10.010;2023-02-21T22:05:01;102020;;;5.3;98
61571;BME280;47463;49.884;10.010;2023-02-21T22:10:01;102010;;;5.4;98
61571;BME280;47463;49.884;10.010;2023-02-21T22:15:01;102010;;;5.3;98
61571;BME280;47463;49.884;10.010;2023-02-21T22:20:01;102000;;;5.2;99
61571;BME280;47463;49.884;10.010;2023-02-21T22:25:01;101990;;;5.1;99
61571;BME280;47463;49.884;10.010;2023-02-21T22:30:01;102000;;;5.1;99
61571;BME280;47463;49.884;10.010;2023-02-21T22:35:01;102000;;;5.1;99
61571;BME280;47463;49.884;10.010;2023-02-21T22:40:01;102000;;;4.9;99
61571;BME280;47463;49.884;10.010;2023-02-21T22:45:01;101990;;;4.9;99
61571;BME280;47463;49.884;10.010;2023-02-21T22:50:01;101990;;;4.8;99
61571;BME280;47463;49.884;10.010;2023-02-21T22:55:01;101990;;;4.8;99
61571;BME280;47463;49.884;10.010;2023-02-21T23:00:01;101990;;;4.7;99
61571;BME280;47463;49.884;10.010;2023-02-21T23:05:01;101980;;;4.7;99
61571;BME280;47463;49.884;10.010;2023-02-21T23:10:01;101970;;;4.7;99
61571;BME280;47463;49.884;10.010;2023-02-21T23:15:01;101970;;;4.7;99
61571;BME280;47463;49.884;10.010;2023-02-21T23:20:01;101970;;;4.6;99
61571;BME280;47463;49.884;10.010;2023-02-21T23:25:01;101960;;;4.5;99
61571;BME280;47463;49.884;10.010;2023-02-21T23:30:01;101960;;;4.6;99
61571;BME280;47463;49.884;10.010;2023-02-21T23:35:01;101960;;;4.6;99
61571;BME280;47463;49.884;10.010;2023-02-21T23:40:01;101960;;;4.4;99
61571;BME280;47463;49.884;10.010;2023-02-21T23:45:01;101960;;;4.3;99
61571;BME280;47463;49.884;10.010;2023-02-21T23:50:01;101950;;;4.4;99
61571;BME280;47463;49.884;10.010;2023-02-21T23:55:01;101950;;;4.4;99
